sensor_id;sensor_type;location;lat;lon;timestamp;P1;durP1;ratioP1;P2;durP2;ratioP2
47603;SDS011;33326;51.116;6.900;2023-04-24T00:04:47;2.10;;;1.10;;
47603;SDS011;33326;51.116;6.900;2023-04-24T00:09:50;3.05;;;1.45;;
47603;SDS011;33326;51.116;6.900;2023-04-24T00:14:52;3.95;;;1.40;;
47603;SDS011;33326;51.116;6.900;2023-04-24T00:19:54;3.53;;;1.40;;
47603;SDS011;33326;51.116;6.900;2023-04-24T00:24:59;2.15;;;1.23;;
47603;SDS011;33326;51.116;6.900;2023-04-24T00:30:01;3.33;;;1.30;;
47603;SDS011;33326;51.116;6.900;2023-04-24T00:35:05;3.28;;;1.35;;
47603;SDS011;33326;51.116;6.900;2023-04-24T00:40:09;2.95;;;1.40;;
47603;SDS011;33326;51.116;6.900;2023-04-24T00:45:12;2.13;;;1.20;;
47603;SDS011;33326;51.116;6.900;2023-04-24T00:50:14;2.92;;;1.35;;
47603;SDS011;33326;51.116;6.900;2023-04-24T00:55:18;2.00;;;1.35;;
47603;SDS011;33326;51.116;6.900;2023-04-24T01:00:20;3.33;;;1.55;;
47603;SDS011;33326;51.116;6.900;2023-04-24T01:05:22;3.67;;;1.27;;
47603;SDS011;33326;51.116;6.900;2023-04-24T01:10:26;3.40;;;1.70;;
47603;SDS011;33326;51.116;6.900;2023-04-24T01:15:30;1.90;;;1.60;;
47603;SDS011;33326;51.116;6.900;2023-04-24T01:20:32;2.97;;;1.63;;
47603;SDS011;33326;51.116;6.900;2023-04-24T01:25:39;2.65;;;1.73;;
47603;SDS011;33326;51.116;6.900;2023-04-24T01:30:41;3.20;;;2.33;;
47603;SDS011;33326;51.116;6.900;2023-04-24T01:35:43;7.05;;;3.60;;
47603;SDS011;33326;51.116;6.900;2023-04-24T01:40:47;5.22;;;3.40;;
47603;SDS011;33326;51.116;6.900;2023-04-24T01:45:48;7.20;;;3.95;;
47603;SDS011;33326;51.116;6.900;2023-04-24T01:50:50;6.68;;;4.30;;
47603;SDS011;33326;51.116;6.900;2023-04-24T01:55:53;8.77;;;4.93;;
47603;SDS011;33326;51.116;6.900;2023-04-24T02:00:55;8.85;;;5.10;;
47603;SDS011;33326;51.116;6.900;2023-04-24T02:05:57;8.02;;;5.32;;
47603;SDS011;33326;51.116;6.900;2023-04-24T02:11:01;9.85;;;5.85;;
47603;SDS011;33326;51.116;6.900;2023-04-24T02:16:03;8.98;;;6.03;;
47603;SDS011;33326;51.116;6.900;2023-04-24T02:21:05;8.60;;;5.65;;
47603;SDS011;33326;51.116;6.900;2023-04-24T02:26:08;9.50;;;6.03;;
47603;SDS011;33326;51.116;6.900;2023-04-24T02:31:10;10.10;;;6.85;;
47603;SDS011;33326;51.116;6.900;2023-04-24T02:36:12;11.73;;;7.45;;
47603;SDS011;33326;51.116;6.900;2023-04-24T02:41:15;14.32;;;8.18;;
47603;SDS011;33326;51.116;6.900;2023-04-24T02:46:17;20.02;;;8.98;;
47603;SDS011;33326;51.116;6.900;2023-04-24T02:51:19;14.40;;;9.32;;
47603;SDS011;33326;51.116;6.900;2023-04-24T02:56:22;14.40;;;9.45;;
47603;SDS011;33326;51.116;6.900;2023-04-24T03:01:24;17.08;;;9.60;;
47603;SDS011;33326;51.116;6.900;2023-04-24T03:06:26;12.95;;;8.48;;
47603;SDS011;33326;51.116;6.900;2023-04-24T03:11:29;13.45;;;8.70;;
47603;SDS011;33326;51.116;6.900;2023-04-24T03:16:31;13.90;;;7.80;;
47603;SDS011;33326;51.116;6.900;2023-04-24T03:21:33;10.68;;;7.85;;
47603;SDS011;33326;51.116;6.900;2023-04-24T03:26:37;12.98;;;8.43;;
47603;SDS011;33326;51.116;6.900;2023-04-24T03:31:53;13.55;;;8.48;;
47603;SDS011;33326;51.116;6.900;2023-04-24T03:36:55;19.00;;;10.30;;
47603;SDS011;33326;51.116;6.900;2023-04-24T03:41:59;15.90;;;10.07;;
47603;SDS011;33326;51.116;6.900;2023-04-24T03:47:12;16.00;;;10.07;;
47603;SDS011;33326;51.116;6.900;2023-04-24T03:52:15;17.52;;;10.45;;
47603;SDS011;33326;51.116;6.900;2023-04-24T03:57:18;16.98;;;10.15;;
47603;SDS011;33326;51.116;6.900;2023-04-24T04:02:32;14.00;;;10.23;;
47603;SDS011;33326;51.116;6.900;2023-04-24T04:07:34;14.75;;;9.95;;
47603;SDS011;33326;51.116;6.900;2023-04-24T04:12:38;15.68;;;9.75;;
47603;SDS011;33326;51.116;6.900;2023-04-24T04:17:39;14.63;;;9.18;;
47603;SDS011;33326;51.116;6.900;2023-04-24T04:22:41;16.67;;;10.35;;
47603;SDS011;33326;51.116;6.900;2023-04-24T04:27:46;16.05;;;9.57;;
47603;SDS011;33326;51.116;6.900;2023-04-24T04:32:49;12.77;;;9.50;;
47603;SDS011;33326;51.116;6.900;2023-04-24T04:37:51;11.23;;;8.13;;
47603;SDS011;33326;51.116;6.900;2023-04-24T04:43:10;14.20;;;7.72;;
47603;SDS011;33326;51.116;6.900;2023-04-24T04:48:19;17.65;;;8.35;;
47603;SDS011;33326;51.116;6.900;2023-04-24T04:53:21;15.07;;;8.07;;
47603;SDS011;33326;51.116;6.900;2023-04-24T04:58:24;11.77;;;7.82;;
47603;SDS011;33326;51.116;6.900;2023-04-24T05:03:30;12.02;;;7.43;;
47603;SDS011;33326;51.116;6.900;2023-04-24T05:08:42;13.07;;;6.95;;
47603;SDS011;33326;51.116;6.900;2023-04-24T05:13:52;12.63;;;7.53;;
47603;SDS011;33326;51.116;6.900;2023-04-24T05:19:05;9.65;;;6.88;;
47603;SDS011;33326;51.116;6.900;2023-04-24T05:24:14;11.43;;;7.78;;
47603;SDS011;33326;51.116;6.900;2023-04-24T05:29:20;10.38;;;6.72;;
47603;SDS011;33326;51.116;6.900;2023-04-24T05:34:22;10.50;;;7.20;;
47603;SDS011;33326;51.116;6.900;2023-04-24T05:39:31;16.67;;;9.35;;
47603;SDS011;33326;51.116;6.900;2023-04-24T05:44:35;14.82;;;10.25;;
47603;SDS011;33326;51.116;6.900;2023-04-24T05:49:37;18.60;;;11.27;;
47603;SDS011;33326;51.116;6.900;2023-04-24T05:54:39;26.50;;;11.77;;
47603;SDS011;33326;51.116;6.900;2023-04-24T05:59:44;15.23;;;9.63;;
47603;SDS011;33326;51.116;6.900;2023-04-24T06:04:46;18.02;;;9.68;;
47603;SDS011;33326;51.116;6.900;2023-04-24T06:09:49;16.23;;;9.93;;
47603;SDS011;33326;51.116;6.900;2023-04-24T06:14:52;14.80;;;8.95;;
47603;SDS011;33326;51.116;6.900;2023-04-24T06:20:04;17.52;;;8.90;;
47603;SDS011;33326;51.116;6.900;2023-04-24T06:25:08;15.02;;;7.43;;
47603;SDS011;33326;51.116;6.900;2023-04-24T06:30:11;11.80;;;6.60;;
47603;SDS011;33326;51.116;6.900;2023-04-24T06:35:14;11.40;;;6.50;;
47603;SDS011;33326;51.116;6.900;2023-04-24T06:40:16;15.07;;;6.80;;
47603;SDS011;33326;51.116;6.900;2023-04-24T06:45:19;9.00;;;5.93;;
47603;SDS011;33326;51.116;6.900;2023-04-24T06:50:21;10.73;;;7.07;;
47603;SDS011;33326;51.116;6.900;2023-04-24T06:55:23;10.13;;;7.60;;
47603;SDS011;33326;51.116;6.900;2023-04-24T07:00:27;12.60;;;7.82;;
47603;SDS011;33326;51.116;6.900;2023-04-24T07:05:30;8.23;;;5.07;;
47603;SDS011;33326;51.116;6.900;2023-04-24T07:10:33;11.02;;;5.10;;
47603;SDS011;33326;51.116;6.900;2023-04-24T07:15:37;6.05;;;4.20;;
47603;SDS011;33326;51.116;6.900;2023-04-24T07:20:41;3.97;;;2.67;;
47603;SDS011;33326;51.116;6.900;2023-04-24T07:25:42;4.50;;;3.22;;
47603;SDS011;33326;51.116;6.900;2023-04-24T07:30:45;5.30;;;3.20;;
47603;SDS011;33326;51.116;6.900;2023-04-24T07:35:47;5.60;;;3.50;;
47603;SDS011;33326;51.116;6.900;2023-04-24T07:40:49;4.68;;;3.30;;
47603;SDS011;33326;51.116;6.900;2023-04-24T07:45:52;5.68;;;3.30;;
47603;SDS011;33326;51.116;6.900;2023-04-24T07:50:54;6.45;;;2.95;;
47603;SDS011;33326;51.116;6.900;2023-04-24T07:55:56;7.15;;;3.03;;
47603;SDS011;33326;51.116;6.900;2023-04-24T08:01:00;2.15;;;1.20;;
47603;SDS011;33326;51.116;6.900;2023-04-24T08:06:02;4.03;;;0.90;;
47603;SDS011;33326;51.116;6.900;2023-04-24T08:11:04;2.25;;;0.90;;
47603;SDS011;33326;51.116;6.900;2023-04-24T08:16:07;2.97;;;1.30;;
47603;SDS011;33326;51.116;6.900;2023-04-24T08:21:09;6.20;;;2.20;;
47603;SDS011;33326;51.116;6.900;2023-04-24T08:26:13;7.93;;;3.45;;
47603;SDS011;33326;51.116;6.900;2023-04-24T08:31:16;8.68;;;4.60;;
47603;SDS011;33326;51.116;6.900;2023-04-24T08:36:18;10.18;;;4.80;;
47603;SDS011;33326;51.116;6.900;2023-04-24T08:41:20;9.45;;;4.70;;
47603;SDS011;33326;51.116;6.900;2023-04-24T08:46:24;5.30;;;3.70;;
47603;SDS011;33326;51.116;6.900;2023-04-24T08:51:26;8.55;;;4.30;;
47603;SDS011;33326;51.116;6.900;2023-04-24T08:56:28;13.95;;;5.32;;
47603;SDS011;33326;51.116;6.900;2023-04-24T09:01:33;7.90;;;5.15;;
47603;SDS011;33326;51.116;6.900;2023-04-24T09:06:39;9.07;;;5.63;;
47603;SDS011;33326;51.116;6.900;2023-04-24T09:11:41;16.70;;;8.88;;
47603;SDS011;33326;51.116;6.900;2023-04-24T09:16:45;16.17;;;8.95;;
47603;SDS011;33326;51.116;6.900;2023-04-24T09:21:47;19.15;;;9.27;;
47603;SDS011;33326;51.116;6.900;2023-04-24T09:26:55;17.13;;;9.43;;
47603;SDS011;33326;51.116;6.900;2023-04-24T09:31:59;28.10;;;12.13;;
47603;SDS011;33326;51.116;6.900;2023-04-24T09:37:27;17.75;;;9.13;;
47603;SDS011;33326;51.116;6.900;2023-04-24T09:42:30;16.47;;;8.80;;
47603;SDS011;33326;51.116;6.900;2023-04-24T09:47:36;22.60;;;10.10;;
47603;SDS011;33326;51.116;6.900;2023-04-24T09:52:42;26.73;;;12.55;;
47603;SDS011;33326;51.116;6.900;2023-04-24T09:57:49;25.05;;;13.30;;
47603;SDS011;33326;51.116;6.900;2023-04-24T10:02:57;32.58;;;13.98;;
47603;SDS011;33326;51.116;6.900;2023-04-24T10:08:01;42.92;;;18.38;;
47603;SDS011;33326;51.116;6.900;2023-04-24T10:13:04;23.02;;;13.23;;
47603;SDS011;33326;51.116;6.900;2023-04-24T10:18:08;36.65;;;16.80;;
47603;SDS011;33326;51.116;6.900;2023-04-24T10:23:10;45.47;;;18.45;;
47603;SDS011;33326;51.116;6.900;2023-04-24T10:28:13;34.33;;;17.63;;
47603;SDS011;33326;51.116;6.900;2023-04-24T10:33:17;34.33;;;16.05;;
47603;SDS011;33326;51.116;6.900;2023-04-24T10:38:21;32.15;;;15.95;;
47603;SDS011;33326;51.116;6.900;2023-04-24T10:43:26;51.72;;;18.85;;
47603;SDS011;33326;51.116;6.900;2023-04-24T10:48:29;23.15;;;11.77;;
47603;SDS011;33326;51.116;6.900;2023-04-24T10:53:31;33.92;;;14.32;;
47603;SDS011;33326;51.116;6.900;2023-04-24T10:58:37;37.53;;;15.98;;
47603;SDS011;33326;51.116;6.900;2023-04-24T11:03:41;33.13;;;14.13;;
47603;SDS011;33326;51.116;6.900;2023-04-24T11:08:58;17.83;;;8.98;;
47603;SDS011;33326;51.116;6.900;2023-04-24T11:14:05;17.35;;;7.78;;
47603;SDS011;33326;51.116;6.900;2023-04-24T11:19:10;27.65;;;12.27;;
47603;SDS011;33326;51.116;6.900;2023-04-24T11:29:47;25.42;;;12.52;;
47603;SDS011;33326;51.116;6.900;2023-04-24T11:34:52;17.80;;;8.02;;
47603;SDS011;33326;51.116;6.900;2023-04-24T11:39:56;18.02;;;6.70;;
47603;SDS011;33326;51.116;6.900;2023-04-24T11:44:59;22.88;;;7.57;;
47603;SDS011;33326;51.116;6.900;2023-04-24T11:50:04;17.67;;;7.78;;
47603;SDS011;33326;51.116;6.900;2023-04-24T11:55:07;24.48;;;9.02;;
47603;SDS011;33326;51.116;6.900;2023-04-24T12:00:24;18.70;;;9.25;;
47603;SDS011;33326;51.116;6.900;2023-04-24T12:05:28;16.38;;;8.23;;
47603;SDS011;33326;51.116;6.900;2023-04-24T12:10:31;15.20;;;6.05;;
47603;SDS011;33326;51.116;6.900;2023-04-24T12:15:34;17.23;;;6.40;;
47603;SDS011;33326;51.116;6.900;2023-04-24T12:20:38;12.18;;;4.68;;
47603;SDS011;33326;51.116;6.900;2023-04-24T12:25:41;15.20;;;4.97;;
47603;SDS011;33326;51.116;6.900;2023-04-24T12:30:44;18.98;;;6.53;;
47603;SDS011;33326;51.116;6.900;2023-04-24T12:35:51;16.45;;;5.50;;
47603;SDS011;33326;51.116;6.900;2023-04-24T12:41:01;10.52;;;4.47;;
47603;SDS011;33326;51.116;6.900;2023-04-24T12:46:04;12.00;;;4.93;;
47603;SDS011;33326;51.116;6.900;2023-04-24T12:51:07;11.13;;;5.13;;
47603;SDS011;33326;51.116;6.900;2023-04-24T12:56:09;14.73;;;6.15;;
47603;SDS011;33326;51.116;6.900;2023-04-24T13:01:11;10.13;;;4.25;;
47603;SDS011;33326;51.116;6.900;2023-04-24T13:06:14;6.90;;;2.90;;
47603;SDS011;33326;51.116;6.900;2023-04-24T13:11:16;9.65;;;3.33;;
47603;SDS011;33326;51.116;6.900;2023-04-24T13:16:18;10.57;;;3.35;;
47603;SDS011;33326;51.116;6.900;2023-04-24T13:21:21;7.00;;;3.97;;
47603;SDS011;33326;51.116;6.900;2023-04-24T13:26:23;7.78;;;3.55;;
47603;SDS011;33326;51.116;6.900;2023-04-24T13:31:25;22.92;;;11.13;;
47603;SDS011;33326;51.116;6.900;2023-04-24T13:36:28;10.73;;;4.35;;
47603;SDS011;33326;51.116;6.900;2023-04-24T13:41:30;10.48;;;4.10;;
47603;SDS011;33326;51.116;6.900;2023-04-24T13:46:33;7.88;;;3.55;;
47603;SDS011;33326;51.116;6.900;2023-04-24T13:51:36;9.10;;;4.03;;
47603;SDS011;33326;51.116;6.900;2023-04-24T13:56:38;8.00;;;3.85;;
47603;SDS011;33326;51.116;6.900;2023-04-24T14:01:41;8.38;;;3.95;;
47603;SDS011;33326;51.116;6.900;2023-04-24T14:06:46;8.15;;;3.17;;
47603;SDS011;33326;51.116;6.900;2023-04-24T14:11:48;9.38;;;3.35;;
47603;SDS011;33326;51.116;6.900;2023-04-24T14:16:50;11.73;;;3.95;;
47603;SDS011;33326;51.116;6.900;2023-04-24T14:21:53;9.00;;;4.25;;
47603;SDS011;33326;51.116;6.900;2023-04-24T14:26:57;9.25;;;4.45;;
47603;SDS011;33326;51.116;6.900;2023-04-24T14:31:59;8.38;;;3.20;;
47603;SDS011;33326;51.116;6.900;2023-04-24T14:37:03;5.72;;;3.17;;
47603;SDS011;33326;51.116;6.900;2023-04-24T14:42:05;9.52;;;3.22;;
47603;SDS011;33326;51.116;6.900;2023-04-24T14:47:07;8.35;;;3.88;;
47603;SDS011;33326;51.116;6.900;2023-04-24T14:52:11;8.63;;;3.05;;
47603;SDS011;33326;51.116;6.900;2023-04-24T14:57:13;9.98;;;4.68;;
47603;SDS011;33326;51.116;6.900;2023-04-24T15:02:17;6.28;;;2.95;;
47603;SDS011;33326;51.116;6.900;2023-04-24T15:07:20;6.70;;;3.45;;
47603;SDS011;33326;51.116;6.900;2023-04-24T15:12:22;9.00;;;2.35;;
47603;SDS011;33326;51.116;6.900;2023-04-24T15:17:25;5.20;;;2.53;;
47603;SDS011;33326;51.116;6.900;2023-04-24T15:22:28;4.88;;;2.30;;
47603;SDS011;33326;51.116;6.900;2023-04-24T15:27:38;3.30;;;2.40;;
47603;SDS011;33326;51.116;6.900;2023-04-24T15:32:41;4.28;;;2.10;;
47603;SDS011;33326;51.116;6.900;2023-04-24T15:37:45;5.53;;;2.35;;
47603;SDS011;33326;51.116;6.900;2023-04-24T15:42:47;7.25;;;2.20;;
47603;SDS011;33326;51.116;6.900;2023-04-24T15:47:50;4.55;;;2.10;;
47603;SDS011;33326;51.116;6.900;2023-04-24T15:52:53;5.57;;;2.17;;
47603;SDS011;33326;51.116;6.900;2023-04-24T15:57:55;5.10;;;1.98;;
47603;SDS011;33326;51.116;6.900;2023-04-24T16:02:57;5.60;;;2.25;;
47603;SDS011;33326;51.116;6.900;2023-04-24T16:08:03;5.10;;;2.40;;
47603;SDS011;33326;51.116;6.900;2023-04-24T16:13:06;4.13;;;2.00;;
47603;SDS011;33326;51.116;6.900;2023-04-24T16:18:07;3.90;;;2.20;;
47603;SDS011;33326;51.116;6.900;2023-04-24T16:23:11;3.90;;;2.05;;
47603;SDS011;33326;51.116;6.900;2023-04-24T16:28:13;6.95;;;1.98;;
47603;SDS011;33326;51.116;6.900;2023-04-24T16:33:16;3.55;;;2.20;;
47603;SDS011;33326;51.116;6.900;2023-04-24T16:38:19;3.28;;;1.88;;
47603;SDS011;33326;51.116;6.900;2023-04-24T16:43:21;3.45;;;1.98;;
47603;SDS011;33326;51.116;6.900;2023-04-24T16:48:23;4.88;;;1.90;;
47603;SDS011;33326;51.116;6.900;2023-04-24T16:53:26;3.65;;;1.90;;
47603;SDS011;33326;51.116;6.900;2023-04-24T16:58:28;7.60;;;2.33;;
47603;SDS011;33326;51.116;6.900;2023-04-24T17:03:30;5.38;;;2.10;;
47603;SDS011;33326;51.116;6.900;2023-04-24T17:08:33;5.57;;;2.53;;
47603;SDS011;33326;51.116;6.900;2023-04-24T17:13:35;4.47;;;1.92;;
47603;SDS011;33326;51.116;6.900;2023-04-24T17:18:37;3.22;;;1.67;;
47603;SDS011;33326;51.116;6.900;2023-04-24T17:23:41;3.90;;;1.80;;
47603;SDS011;33326;51.116;6.900;2023-04-24T17:28:42;5.35;;;2.20;;
47603;SDS011;33326;51.116;6.900;2023-04-24T17:33:44;4.75;;;2.35;;
47603;SDS011;33326;51.116;6.900;2023-04-24T17:38:47;5.68;;;2.00;;
47603;SDS011;33326;51.116;6.900;2023-04-24T17:43:49;6.60;;;2.10;;
47603;SDS011;33326;51.116;6.900;2023-04-24T17:48:51;8.00;;;2.70;;
47603;SDS011;33326;51.116;6.900;2023-04-24T17:53:54;4.97;;;2.20;;
47603;SDS011;33326;51.116;6.900;2023-04-24T17:58:56;4.47;;;1.80;;
47603;SDS011;33326;51.116;6.900;2023-04-24T18:03:58;4.72;;;1.90;;
47603;SDS011;33326;51.116;6.900;2023-04-24T18:09:01;6.68;;;2.33;;
47603;SDS011;33326;51.116;6.900;2023-04-24T18:14:03;3.72;;;2.25;;
47603;SDS011;33326;51.116;6.900;2023-04-24T18:19:05;6.45;;;2.10;;
47603;SDS011;33326;51.116;6.900;2023-04-24T18:24:08;6.60;;;2.50;;
47603;SDS011;33326;51.116;6.900;2023-04-24T18:29:10;5.03;;;2.40;;
47603;SDS011;33326;51.116;6.900;2023-04-24T18:34:11;4.80;;;2.13;;
47603;SDS011;33326;51.116;6.900;2023-04-24T18:39:15;7.03;;;2.63;;
47603;SDS011;33326;51.116;6.900;2023-04-24T18:44:16;6.32;;;2.70;;
47603;SDS011;33326;51.116;6.900;2023-04-24T18:49:19;4.45;;;2.30;;
47603;SDS011;33326;51.116;6.900;2023-04-24T18:54:22;5.47;;;2.42;;
47603;SDS011;33326;51.116;6.900;2023-04-24T18:59:24;5.78;;;2.42;;
47603;SDS011;33326;51.116;6.900;2023-04-24T19:04:27;4.53;;;2.22;;
47603;SDS011;33326;51.116;6.900;2023-04-24T19:09:31;4.50;;;2.35;;
47603;SDS011;33326;51.116;6.900;2023-04-24T19:14:32;4.40;;;2.30;;
47603;SDS011;33326;51.116;6.900;2023-04-24T19:19:35;5.68;;;2.50;;
47603;SDS011;33326;51.116;6.900;2023-04-24T19:24:39;5.68;;;2.72;;
47603;SDS011;33326;51.116;6.900;2023-04-24T19:29:41;6.53;;;2.55;;
47603;SDS011;33326;51.116;6.900;2023-04-24T19:34:42;7.20;;;3.03;;
47603;SDS011;33326;51.116;6.900;2023-04-24T19:39:46;4.53;;;2.30;;
47603;SDS011;33326;51.116;6.900;2023-04-24T19:44:48;8.15;;;3.28;;
47603;SDS011;33326;51.116;6.900;2023-04-24T19:49:49;7.75;;;4.25;;
47603;SDS011;33326;51.116;6.900;2023-04-24T19:54:53;7.93;;;3.22;;
47603;SDS011;33326;51.116;6.900;2023-04-24T19:59:54;7.70;;;3.72;;
47603;SDS011;33326;51.116;6.900;2023-04-24T20:04:56;10.93;;;3.17;;
47603;SDS011;33326;51.116;6.900;2023-04-24T20:09:59;6.63;;;3.05;;
47603;SDS011;33326;51.116;6.900;2023-04-24T20:15:02;7.35;;;3.25;;
47603;SDS011;33326;51.116;6.900;2023-04-24T20:20:05;6.18;;;3.15;;
47603;SDS011;33326;51.116;6.900;2023-04-24T20:25:10;7.22;;;3.17;;
47603;SDS011;33326;51.116;6.900;2023-04-24T20:30:13;9.65;;;3.55;;
47603;SDS011;33326;51.116;6.900;2023-04-24T20:35:15;7.63;;;3.25;;
47603;SDS011;33326;51.116;6.900;2023-04-24T20:40:18;7.32;;;3.28;;
47603;SDS011;33326;51.116;6.900;2023-04-24T20:45:20;7.00;;;3.30;;
47603;SDS011;33326;51.116;6.900;2023-04-24T20:50:23;8.27;;;3.33;;
47603;SDS011;33326;51.116;6.900;2023-04-24T20:55:26;8.35;;;3.58;;
47603;SDS011;33326;51.116;6.900;2023-04-24T21:00:28;11.30;;;3.38;;
47603;SDS011;33326;51.116;6.900;2023-04-24T21:05:30;5.90;;;3.60;;
47603;SDS011;33326;51.116;6.900;2023-04-24T21:10:34;5.45;;;3.28;;
47603;SDS011;33326;51.116;6.900;2023-04-24T21:15:35;7.70;;;3.65;;
47603;SDS011;33326;51.116;6.900;2023-04-24T21:20:37;11.73;;;3.88;;
47603;SDS011;33326;51.116;6.900;2023-04-24T21:25:41;8.55;;;3.70;;
47603;SDS011;33326;51.116;6.900;2023-04-24T21:30:43;10.45;;;3.90;;
47603;SDS011;33326;51.116;6.900;2023-04-24T21:35:45;7.28;;;3.50;;
47603;SDS011;33326;51.116;6.900;2023-04-24T21:40:48;9.52;;;3.90;;
47603;SDS011;33326;51.116;6.900;2023-04-24T21:45:50;10.18;;;3.80;;
47603;SDS011;33326;51.116;6.900;2023-04-24T21:50:52;8.15;;;3.85;;
47603;SDS011;33326;51.116;6.900;2023-04-24T21:55:56;11.05;;;4.32;;
47603;SDS011;33326;51.116;6.900;2023-04-24T22:00:57;9.55;;;4.38;;
47603;SDS011;33326;51.116;6.900;2023-04-24T22:05:59;8.40;;;3.97;;
47603;SDS011;33326;51.116;6.900;2023-04-24T22:11:03;11.40;;;4.38;;
47603;SDS011;33326;51.116;6.900;2023-04-24T22:16:05;9.98;;;4.43;;
47603;SDS011;33326;51.116;6.900;2023-04-24T22:21:07;14.35;;;4.32;;
47603;SDS011;33326;51.116;6.900;2023-04-24T22:26:10;11.93;;;4.78;;
47603;SDS011;33326;51.116;6.900;2023-04-24T22:31:12;12.68;;;4.47;;
47603;SDS011;33326;51.116;6.900;2023-04-24T22:36:14;12.68;;;5.00;;
47603;SDS011;33326;51.116;6.900;2023-04-24T22:41:17;13.68;;;4.60;;
47603;SDS011;33326;51.116;6.900;2023-04-24T22:46:19;12.73;;;4.88;;
47603;SDS011;33326;51.116;6.900;2023-04-24T22:51:21;11.48;;;5.28;;
47603;SDS011;33326;51.116;6.900;2023-04-24T22:56:24;22.27;;;5.15;;
47603;SDS011;33326;51.116;6.900;2023-04-24T23:01:26;12.32;;;5.13;;
47603;SDS011;33326;51.116;6.900;2023-04-24T23:06:28;19.67;;;5.70;;
47603;SDS011;33326;51.116;6.900;2023-04-24T23:11:31;15.27;;;5.47;;
47603;SDS011;33326;51.116;6.900;2023-04-24T23:16:33;15.10;;;5.47;;
47603;SDS011;33326;51.116;6.900;2023-04-24T23:21:36;15.60;;;5.78;;
47603;SDS011;33326;51.116;6.900;2023-04-24T23:26:39;13.68;;;5.82;;
47603;SDS011;33326;51.116;6.900;2023-04-24T23:31:41;12.13;;;5.50;;
47603;SDS011;33326;51.116;6.900;2023-04-24T23:36:43;14.10;;;5.75;;
47603;SDS011;33326;51.116;6.900;2023-04-24T23:41:47;13.68;;;5.68;;
47603;SDS011;33326;51.116;6.900;2023-04-24T23:46:48;13.38;;;5.25;;
47603;SDS011;33326;51.116;6.900;2023-04-24T23:51:51;16.00;;;5.50;;
47603;SDS011;33326;51.116;6.900;2023-04-24T23:56:55;15.82;;;6.25;;
